createdAt,value
2023-05-08T00:00:30.622Z,8.44
2023-05-08T00:02:57.198Z,8.43
2023-05-08T00:05:23.872Z,8.40
2023-05-08T00:07:51.597Z,8.37
2023-05-08T00:10:18.202Z,8.35
2023-05-08T00:12:44.734Z,8.32
2023-05-08T00:15:11.594Z,8.29
2023-05-08T00:17:38.360Z,8.25
2023-05-08T00:20:08.018Z,8.21
2023-05-08T00:22:35.192Z,8.18
2023-05-08T00:25:02.671Z,8.14
2023-05-08T00:27:29.343Z,8.11
2023-05-08T00:29:56.025Z,8.10
2023-05-08T00:32:22.749Z,8.09
2023-05-08T00:34:49.283Z,8.08
2023-05-08T00:37:15.867Z,8.05
2023-05-08T00:39:42.416Z,8.03
2023-05-08T00:42:09.052Z,8.02
2023-05-08T00:44:35.645Z,8.00
2023-05-08T00:47:02.404Z,7.97
2023-05-08T00:49:29.145Z,7.96
2023-05-08T00:51:55.988Z,7.95
2023-05-08T00:54:22.520Z,7.95
2023-05-08T00:56:50.182Z,7.95
2023-05-08T00:59:16.819Z,7.95
2023-05-08T01:01:43.482Z,7.94
2023-05-08T01:04:10.058Z,7.93
2023-05-08T01:06:37.521Z,7.93
2023-05-08T01:09:04.702Z,7.94
2023-05-08T01:11:56.112Z,7.94
2023-05-08T01:14:46.625Z,7.93
2023-05-08T01:17:43.648Z,7.91
2023-05-08T01:20:18.874Z,7.89
2023-05-08T01:23:04.479Z,7.92
2023-05-08T01:26:00.522Z,7.89
2023-05-08T01:28:45.695Z,7.88
2023-05-08T01:31:40.160Z,7.89
2023-05-08T01:34:14.325Z,7.89
2023-05-08T01:36:47.919Z,7.88
2023-05-08T01:39:17.215Z,7.87
2023-05-08T01:41:50.666Z,7.84
2023-05-08T01:44:19.740Z,7.82
2023-05-08T01:46:48.693Z,7.80
2023-05-08T01:49:24.764Z,7.78
2023-05-08T01:52:13.335Z,7.77
2023-05-08T01:54:43.902Z,7.75
2023-05-08T01:57:10.668Z,7.75
2023-05-08T01:59:37.344Z,7.75
2023-05-08T02:02:04.105Z,7.72
2023-05-08T02:04:31.555Z,7.72
2023-05-08T02:06:58.089Z,7.72
2023-05-08T02:09:26.088Z,7.70
2023-05-08T02:11:52.708Z,7.72
2023-05-08T02:14:19.775Z,7.71
2023-05-08T02:16:47.737Z,7.70
2023-05-08T02:19:14.754Z,7.69
2023-05-08T02:21:41.293Z,7.70
2023-05-08T02:24:07.835Z,7.68
2023-05-08T02:26:34.343Z,7.67
2023-05-08T02:29:02.044Z,7.67
2023-05-08T02:31:29.229Z,7.65
2023-05-08T02:33:56.892Z,7.67
2023-05-08T02:36:24.984Z,7.66
2023-05-08T02:38:52.436Z,7.65
2023-05-08T02:41:20.779Z,7.62
2023-05-08T02:43:48.625Z,7.61
2023-05-08T02:46:18.130Z,7.60
2023-05-08T02:49:06.489Z,7.60
2023-05-08T02:51:46.591Z,7.59
2023-05-08T02:54:25.785Z,7.61
2023-05-08T02:56:56.544Z,7.62
2023-05-08T02:59:46.493Z,7.63
2023-05-08T03:02:17.661Z,7.60
2023-05-08T03:04:50.951Z,7.60
2023-05-08T03:07:19.381Z,7.59
2023-05-08T03:09:48.355Z,7.61
2023-05-08T03:12:16.667Z,7.62
2023-05-08T03:15:09.447Z,7.62
2023-05-08T03:17:36.890Z,7.60
2023-05-08T03:20:07.652Z,7.60
2023-05-08T03:22:35.174Z,7.59
2023-05-08T03:25:02.414Z,7.60
2023-05-08T03:27:30.105Z,7.63
2023-05-08T03:29:56.803Z,7.64
2023-05-08T03:32:24.373Z,7.66
2023-05-08T03:34:51.412Z,7.67
2023-05-08T03:37:18.046Z,7.69
2023-05-08T03:39:44.556Z,7.70
2023-05-08T03:42:16.263Z,7.72
2023-05-08T03:44:42.738Z,7.74
2023-05-08T03:47:09.387Z,7.75
2023-05-08T03:49:36.060Z,7.75
2023-05-08T03:52:02.688Z,7.77
2023-05-08T03:54:29.632Z,7.77
2023-05-08T03:56:57.863Z,7.78
2023-05-08T03:59:50.399Z,7.78
2023-05-08T04:02:36.296Z,7.80
2023-05-08T04:05:15.398Z,7.80
2023-05-08T04:07:46.838Z,7.81
2023-05-08T04:10:20.544Z,7.81
2023-05-08T04:13:04.138Z,7.83
2023-05-08T04:15:38.799Z,7.87
2023-05-08T04:18:08.066Z,7.87
2023-05-08T04:20:34.704Z,7.88
2023-05-08T04:23:01.429Z,7.91
2023-05-08T04:25:28.081Z,7.94
2023-05-08T04:27:55.482Z,7.98
2023-05-08T04:30:22.649Z,8.05
2023-05-08T04:32:49.661Z,8.13
2023-05-08T04:35:16.466Z,8.24
2023-05-08T04:37:43.277Z,8.34
2023-05-08T04:40:10.405Z,8.45
2023-05-08T04:42:38.998Z,8.54
2023-05-08T04:45:06.526Z,8.59
2023-05-08T04:47:33.228Z,8.63
2023-05-08T04:50:02.805Z,8.68
2023-05-08T04:52:31.794Z,8.73
2023-05-08T04:54:58.270Z,8.76
2023-05-08T04:57:24.968Z,8.79
2023-05-08T04:59:51.815Z,8.82
2023-05-08T05:02:18.977Z,8.82
2023-05-08T05:04:46.161Z,8.88
2023-05-08T05:07:13.010Z,8.90
2023-05-08T05:09:39.821Z,8.94
2023-05-08T05:12:06.841Z,9.02
2023-05-08T05:14:33.665Z,9.12
2023-05-08T05:17:00.416Z,9.26
2023-05-08T05:19:27.008Z,9.40
2023-05-08T05:21:53.571Z,9.52
2023-05-08T05:24:20.530Z,9.56
2023-05-08T05:26:47.098Z,9.55
2023-05-08T05:29:13.754Z,9.58
2023-05-08T05:31:40.521Z,9.66
2023-05-08T05:34:07.807Z,9.73
2023-05-08T05:36:35.265Z,9.81
2023-05-08T05:39:02.623Z,9.89
2023-05-08T05:41:30.179Z,9.95
2023-05-08T05:43:56.981Z,10.00
2023-05-08T05:46:31.498Z,10.00
2023-05-08T05:49:00.154Z,9.97
2023-05-08T05:51:27.130Z,10.01
2023-05-08T05:53:54.416Z,10.07
2023-05-08T05:56:22.597Z,10.11
2023-05-08T05:58:49.181Z,10.08
2023-05-08T06:01:16.089Z,10.03
2023-05-08T06:03:43.845Z,10.03
2023-05-08T06:06:10.689Z,10.06
2023-05-08T06:08:37.936Z,10.08
2023-05-08T06:11:04.513Z,10.08
2023-05-08T06:13:31.393Z,10.09
2023-05-08T06:15:58.323Z,10.10
2023-05-08T06:18:25.534Z,10.11
2023-05-08T06:20:58.034Z,10.17
2023-05-08T06:23:25.356Z,10.28
2023-05-08T06:25:52.649Z,10.45
2023-05-08T06:28:21.899Z,10.62
2023-05-08T06:30:48.546Z,10.85
2023-05-08T06:33:15.183Z,11.09
2023-05-08T06:35:45.804Z,11.27
2023-05-08T06:38:12.644Z,11.46
2023-05-08T06:40:45.620Z,11.71
2023-05-08T06:43:12.366Z,11.98
2023-05-08T06:45:39.645Z,12.24
2023-05-08T06:48:06.416Z,12.41
2023-05-08T06:50:33.497Z,12.47
2023-05-08T06:53:00.035Z,12.50
2023-05-08T06:55:26.558Z,12.56
2023-05-08T06:57:53.028Z,12.74
2023-05-08T07:00:19.957Z,12.84
2023-05-08T07:02:46.456Z,12.78
2023-05-08T07:05:13.583Z,12.69
2023-05-08T07:07:42.229Z,12.74
2023-05-08T07:10:09.375Z,12.82
2023-05-08T07:12:36.009Z,12.88
2023-05-08T07:15:13.807Z,13.02
2023-05-08T07:17:45.259Z,13.10
2023-05-08T07:20:11.975Z,13.21
2023-05-08T07:22:38.796Z,13.39
2023-05-08T07:25:06.098Z,13.55
2023-05-08T07:27:32.698Z,13.62
2023-05-08T07:30:03.468Z,13.65
2023-05-08T07:32:33.406Z,13.63
2023-05-08T07:35:02.184Z,13.72
2023-05-08T07:37:29.577Z,13.72
2023-05-08T07:39:56.223Z,13.71
2023-05-08T07:42:22.802Z,13.65
2023-05-08T07:44:54.888Z,13.66
2023-05-08T07:47:22.124Z,13.72
2023-05-08T07:49:48.696Z,13.70
2023-05-08T07:52:15.373Z,13.69
2023-05-08T07:54:43.158Z,13.84
2023-05-08T07:57:09.824Z,14.14
2023-05-08T07:59:36.524Z,14.33
2023-05-08T08:02:03.195Z,14.45
2023-05-08T08:04:30.060Z,14.60
2023-05-08T08:06:56.774Z,14.72
2023-05-08T08:09:23.436Z,14.71
2023-05-08T08:11:50.432Z,14.62
2023-05-08T08:14:16.972Z,14.57
2023-05-08T08:16:43.614Z,14.33
2023-05-08T08:19:10.356Z,14.18
2023-05-08T08:21:43.640Z,14.19
2023-05-08T08:24:10.243Z,14.21
2023-05-08T08:26:36.826Z,14.15
2023-05-08T08:29:03.990Z,14.03
2023-05-08T08:31:30.769Z,13.94
2023-05-08T08:33:57.782Z,13.88
2023-05-08T08:36:24.397Z,13.94
2023-05-08T08:38:50.965Z,13.89
2023-05-08T08:41:17.542Z,13.81
2023-05-08T08:43:44.031Z,13.80
2023-05-08T08:46:12.528Z,13.82
2023-05-08T08:48:43.020Z,13.81
2023-05-08T08:51:18.257Z,13.91
2023-05-08T08:53:45.977Z,14.06
2023-05-08T08:56:12.576Z,14.21
2023-05-08T08:58:47.400Z,14.21
2023-05-08T09:01:15.412Z,14.19
2023-05-08T09:03:42.226Z,14.24
2023-05-08T09:06:08.968Z,14.22
2023-05-08T09:08:36.757Z,14.18
2023-05-08T09:11:03.432Z,14.39
2023-05-08T09:13:32.010Z,14.64
2023-05-08T09:15:58.959Z,14.88
2023-05-08T09:18:25.458Z,14.87
2023-05-08T09:20:52.053Z,14.66
2023-05-08T09:23:19.176Z,14.42
2023-05-08T09:25:47.470Z,14.24
2023-05-08T09:28:24.698Z,14.20
2023-05-08T09:30:56.019Z,14.41
2023-05-08T09:33:27.007Z,14.70
2023-05-08T09:35:56.921Z,15.03
2023-05-08T09:38:36.648Z,15.24
2023-05-08T09:41:16.440Z,15.24
2023-05-08T09:43:44.121Z,15.31
2023-05-08T09:46:24.374Z,15.19
2023-05-08T09:48:58.347Z,15.05
2023-05-08T09:51:26.551Z,15.01
2023-05-08T09:53:53.983Z,14.94
2023-05-08T09:56:36.690Z,14.87
2023-05-08T09:59:21.497Z,14.81
2023-05-08T10:01:48.331Z,14.79
2023-05-08T10:04:15.185Z,14.78
2023-05-08T10:06:42.085Z,14.74
2023-05-08T10:09:10.322Z,14.77
2023-05-08T10:11:38.296Z,14.87
2023-05-08T10:14:04.760Z,15.00
2023-05-08T10:16:41.108Z,15.13
2023-05-08T10:19:17.553Z,15.23
2023-05-08T10:21:46.722Z,15.46
2023-05-08T10:24:16.030Z,15.62
2023-05-08T10:27:13.899Z,15.62
2023-05-08T10:29:43.395Z,15.57
2023-05-08T10:32:10.400Z,15.49
2023-05-08T10:34:39.809Z,15.41
2023-05-08T10:37:09.860Z,15.37
2023-05-08T10:39:36.820Z,15.38
2023-05-08T10:42:03.651Z,15.47
2023-05-08T10:44:30.624Z,15.57
2023-05-08T10:47:19.449Z,15.61
2023-05-08T10:49:55.610Z,15.48
2023-05-08T10:52:56.958Z,15.36
2023-05-08T10:55:29.350Z,15.15
2023-05-08T10:58:12.023Z,14.97
2023-05-08T11:00:57.050Z,14.76
2023-05-08T11:03:31.256Z,14.65
2023-05-08T11:05:59.960Z,14.60
2023-05-08T11:08:27.706Z,14.65
2023-05-08T11:11:04.385Z,14.60
2023-05-08T11:13:38.430Z,14.55
2023-05-08T11:16:11.678Z,14.52
2023-05-08T11:18:48.992Z,14.50
2023-05-08T11:21:21.164Z,14.35
2023-05-08T11:23:55.890Z,14.24
2023-05-08T11:26:23.025Z,14.28
2023-05-08T11:28:52.960Z,14.39
2023-05-08T11:31:19.859Z,14.47
2023-05-08T11:33:46.496Z,14.48
2023-05-08T11:36:14.338Z,14.46
2023-05-08T11:38:42.943Z,14.46
2023-05-08T11:41:10.627Z,14.41
2023-05-08T11:43:46.733Z,14.44
2023-05-08T11:46:14.850Z,14.49
2023-05-08T11:48:41.548Z,14.60
2023-05-08T11:51:08.470Z,14.62
2023-05-08T11:53:37.699Z,14.57
2023-05-08T11:56:04.790Z,14.51
2023-05-08T11:58:31.516Z,14.54
2023-05-08T12:03:30.802Z,14.58
2023-05-08T12:05:58.748Z,14.43
2023-05-08T12:08:25.434Z,14.40
2023-05-08T12:10:53.561Z,14.43
2023-05-08T12:13:20.985Z,14.45
2023-05-08T12:15:48.932Z,14.49
2023-05-08T12:18:16.046Z,14.56
2023-05-08T12:20:43.417Z,14.61
2023-05-08T12:23:12.997Z,14.62
2023-05-08T12:25:39.759Z,14.63
2023-05-08T12:28:07.534Z,14.68
2023-05-08T12:30:34.175Z,14.69
2023-05-08T12:33:01.043Z,14.63
2023-05-08T12:35:28.026Z,14.49
2023-05-08T12:37:54.625Z,14.43
2023-05-08T12:40:46.269Z,14.39
2023-05-08T12:43:13.256Z,14.49
2023-05-08T12:45:41.446Z,14.52
2023-05-08T12:48:12.978Z,14.44
2023-05-08T12:50:41.281Z,14.38
2023-05-08T12:53:09.345Z,14.37
2023-05-08T12:55:37.135Z,14.39
2023-05-08T12:58:15.693Z,14.36
2023-05-08T13:00:48.083Z,14.39
2023-05-08T13:03:25.674Z,14.31
2023-05-08T13:05:53.065Z,14.22
2023-05-08T13:08:19.777Z,14.15
2023-05-08T13:10:50.948Z,14.15
2023-05-08T13:13:20.229Z,14.12
2023-05-08T13:15:47.796Z,14.05
2023-05-08T13:18:15.084Z,13.96
2023-05-08T13:20:41.979Z,13.90
2023-05-08T13:23:09.649Z,13.85
2023-05-08T13:25:37.020Z,13.79
2023-05-08T13:28:04.687Z,13.80
2023-05-08T13:30:31.533Z,13.81
2023-05-08T13:32:58.284Z,13.80
2023-05-08T13:35:25.313Z,13.78
2023-05-08T13:37:52.049Z,13.72
2023-05-08T13:40:19.082Z,13.71
2023-05-08T13:42:45.743Z,13.76
2023-05-08T13:45:14.727Z,13.79
2023-05-08T13:47:42.528Z,13.77
2023-05-08T13:50:10.414Z,13.70
2023-05-08T13:52:37.959Z,13.71
2023-05-08T13:55:06.491Z,13.72
2023-05-08T13:57:33.418Z,13.75
2023-05-08T14:00:00.384Z,13.73
2023-05-08T14:02:27.369Z,13.69
2023-05-08T14:04:54.627Z,13.68
2023-05-08T14:07:21.366Z,13.69
2023-05-08T14:09:48.059Z,13.73
2023-05-08T14:12:14.734Z,13.81
2023-05-08T14:14:41.435Z,13.85
2023-05-08T14:17:09.108Z,13.80
2023-05-08T14:19:36.240Z,13.76
2023-05-08T14:22:03.095Z,13.78
2023-05-08T14:24:29.770Z,13.79
2023-05-08T14:26:56.401Z,13.75
2023-05-08T14:29:23.134Z,13.70
2023-05-08T14:31:49.792Z,13.70
2023-05-08T14:34:16.394Z,13.68
2023-05-08T14:36:43.119Z,13.69
2023-05-08T14:39:09.846Z,13.72
2023-05-08T14:41:38.404Z,13.72
2023-05-08T14:44:05.323Z,13.72
2023-05-08T14:46:31.977Z,13.75
2023-05-08T14:48:58.726Z,13.80
2023-05-08T14:51:25.443Z,13.83
2023-05-08T14:53:52.209Z,13.84
2023-05-08T14:56:19.109Z,13.88
2023-05-08T14:58:46.207Z,13.92
2023-05-08T15:01:12.980Z,13.93
2023-05-08T15:03:39.914Z,13.89
2023-05-08T15:06:07.272Z,13.83
2023-05-08T15:08:33.943Z,13.72
2023-05-08T15:11:00.647Z,13.64
2023-05-08T15:13:27.495Z,13.62
2023-05-08T15:15:54.399Z,13.63
2023-05-08T15:18:21.071Z,13.55
2023-05-08T15:20:48.127Z,13.51
2023-05-08T15:23:15.309Z,13.49
2023-05-08T15:25:42.037Z,13.48
2023-05-08T15:28:08.741Z,13.49
2023-05-08T15:30:35.339Z,13.49
2023-05-08T15:33:01.985Z,13.49
2023-05-08T15:35:28.650Z,13.53
2023-05-08T15:37:55.266Z,13.52
2023-05-08T15:40:21.914Z,13.45
2023-05-08T15:42:48.687Z,13.44
2023-05-08T15:45:16.575Z,13.41
2023-05-08T15:47:43.471Z,13.41
2023-05-08T15:50:10.947Z,13.39
2023-05-08T15:52:37.676Z,13.36
2023-05-08T15:55:04.676Z,13.35
2023-05-08T15:57:31.340Z,13.36
2023-05-08T15:59:57.953Z,13.33
2023-05-08T16:02:25.567Z,13.30
2023-05-08T16:04:52.405Z,13.24
2023-05-08T16:07:19.009Z,13.21
2023-05-08T16:09:46.106Z,13.15
2023-05-08T16:12:12.837Z,13.06
2023-05-08T16:14:39.481Z,13.00
2023-05-08T16:17:10.408Z,12.97
2023-05-08T16:19:38.614Z,12.94
2023-05-08T16:22:06.962Z,12.88
2023-05-08T16:24:33.757Z,12.81
2023-05-08T16:27:00.390Z,12.72
2023-05-08T16:29:27.179Z,12.64
2023-05-08T16:31:53.822Z,12.58
2023-05-08T16:34:20.727Z,12.52
2023-05-08T16:36:47.416Z,12.45
2023-05-08T16:39:14.074Z,12.41
2023-05-08T16:41:40.776Z,12.39
2023-05-08T16:44:07.420Z,12.34
2023-05-08T16:46:34.319Z,12.30
2023-05-08T16:49:00.992Z,12.26
2023-05-08T16:51:27.860Z,12.19
2023-05-08T16:53:56.008Z,12.12
2023-05-08T16:56:24.753Z,12.04
2023-05-08T16:58:51.332Z,11.98
2023-05-08T17:01:18.139Z,11.94
2023-05-08T17:03:44.972Z,11.91
2023-05-08T17:06:11.751Z,11.86
2023-05-08T17:08:38.325Z,11.83
2023-05-08T17:11:04.978Z,11.78
2023-05-08T17:13:31.617Z,11.75
2023-05-08T17:15:58.324Z,11.70
2023-05-08T17:18:25.134Z,11.65
2023-05-08T17:20:51.781Z,11.60
2023-05-08T17:23:18.399Z,11.55
2023-05-08T17:25:45.088Z,11.49
2023-05-08T17:28:11.691Z,11.38
2023-05-08T17:30:38.432Z,11.30
2023-05-08T17:33:05.295Z,11.23
2023-05-08T17:35:32.142Z,11.14
2023-05-08T17:37:58.795Z,11.06
2023-05-08T17:40:26.579Z,10.96
2023-05-08T17:42:53.196Z,10.89
2023-05-08T17:45:19.806Z,10.82
2023-05-08T17:47:46.511Z,10.72
2023-05-08T17:50:13.378Z,10.64
2023-05-08T17:52:40.498Z,10.53
2023-05-08T17:55:07.903Z,10.44
2023-05-08T17:57:34.561Z,10.37
2023-05-08T18:00:01.210Z,10.32
2023-05-08T18:02:28.135Z,10.27
2023-05-08T18:04:54.950Z,10.22
2023-05-08T18:07:21.712Z,10.16
2023-05-08T18:09:48.388Z,10.10
2023-05-08T18:12:15.092Z,10.05
2023-05-08T18:14:43.275Z,10.01
2023-05-08T18:17:11.872Z,9.96
2023-05-08T18:19:38.531Z,9.88
2023-05-08T18:22:05.215Z,9.83
2023-05-08T18:24:31.865Z,9.79
2023-05-08T18:26:58.547Z,9.73
2023-05-08T18:29:25.654Z,9.65
2023-05-08T18:31:52.376Z,9.57
2023-05-08T18:34:19.133Z,9.50
2023-05-08T18:36:45.779Z,9.42
2023-05-08T18:39:12.493Z,9.35
2023-05-08T18:41:39.336Z,9.27
2023-05-08T18:44:06.075Z,9.19
2023-05-08T18:46:32.788Z,9.13
2023-05-08T18:48:59.424Z,9.06
2023-05-08T18:51:26.081Z,8.98
2023-05-08T18:53:52.799Z,8.91
2023-05-08T18:56:19.773Z,8.85
2023-05-08T18:58:46.867Z,8.80
2023-05-08T19:01:13.696Z,8.75
2023-05-08T19:03:40.470Z,8.68
2023-05-08T19:06:07.269Z,8.62
2023-05-08T19:08:33.917Z,8.53
2023-05-08T19:11:00.568Z,8.44
2023-05-08T19:13:27.524Z,8.35
2023-05-08T19:15:54.443Z,8.25
2023-05-08T19:18:21.278Z,8.16
2023-05-08T19:20:47.862Z,8.08
2023-05-08T19:23:14.538Z,7.99
2023-05-08T19:25:41.227Z,7.90
2023-05-08T19:28:07.858Z,7.80
2023-05-08T19:30:34.468Z,7.71
2023-05-08T19:33:01.297Z,7.62
2023-05-08T19:35:27.961Z,7.53
2023-05-08T19:37:54.674Z,7.45
2023-05-08T19:40:21.274Z,7.38
2023-05-08T19:42:47.893Z,7.31
2023-05-08T19:45:16.245Z,7.24
2023-05-08T19:47:42.944Z,7.16
2023-05-08T19:50:12.511Z,7.08
2023-05-08T19:52:39.403Z,7.00
2023-05-08T19:55:06.572Z,6.93
2023-05-08T19:57:33.152Z,6.87
2023-05-08T20:00:00.249Z,6.81
2023-05-08T20:02:26.968Z,6.77
2023-05-08T20:05:18.877Z,6.71
2023-05-08T20:07:40.348Z,6.62
2023-05-08T20:10:07.584Z,6.54
2023-05-08T20:12:34.173Z,6.47
2023-05-08T20:15:00.795Z,6.41
2023-05-08T20:17:27.502Z,6.34
2023-05-08T20:19:54.223Z,6.26
2023-05-08T20:22:21.258Z,6.18
2023-05-08T20:24:47.967Z,6.11
2023-05-08T20:27:14.626Z,6.05
2023-05-08T20:29:41.360Z,5.98
2023-05-08T20:32:08.378Z,5.91
2023-05-08T20:34:35.197Z,5.84
2023-05-08T20:37:03.685Z,5.75
2023-05-08T20:39:30.444Z,5.67
2023-05-08T20:41:57.094Z,5.60
2023-05-08T20:44:23.691Z,5.53
2023-05-08T20:46:51.391Z,5.47
2023-05-08T20:49:18.066Z,5.42
2023-05-08T20:51:44.683Z,5.35
2023-05-08T20:54:11.269Z,5.30
2023-05-08T20:56:37.883Z,5.24
2023-05-08T20:59:04.533Z,5.19
2023-05-08T21:01:31.213Z,5.14
2023-05-08T21:03:57.822Z,5.09
2023-05-08T21:06:24.890Z,5.04
2023-05-08T21:08:51.583Z,4.99
2023-05-08T21:11:18.297Z,4.94
2023-05-08T21:13:45.310Z,4.90
2023-05-08T21:16:12.107Z,4.87
2023-05-08T21:18:39.175Z,4.83
2023-05-08T21:21:14.925Z,4.78
2023-05-08T21:23:41.696Z,4.73
2023-05-08T21:26:08.374Z,4.69
2023-05-08T21:28:35.281Z,4.64
2023-05-08T21:31:01.906Z,4.59
2023-05-08T21:33:29.059Z,4.53
2023-05-08T21:35:56.056Z,4.48
2023-05-08T21:38:22.648Z,4.44
2023-05-08T21:40:49.361Z,4.39
2023-05-08T21:43:15.959Z,4.33
2023-05-08T21:45:42.705Z,4.28
2023-05-08T21:48:09.345Z,4.24
2023-05-08T21:50:35.944Z,4.20
2023-05-08T21:53:03.310Z,4.16
2023-05-08T21:55:32.187Z,4.12
2023-05-08T21:57:59.143Z,4.08
2023-05-08T22:00:26.956Z,4.04
2023-05-08T22:02:53.742Z,4.00
2023-05-08T22:05:20.594Z,3.95
2023-05-08T22:07:47.635Z,3.89
2023-05-08T22:10:14.509Z,3.83
2023-05-08T22:12:41.294Z,3.79
2023-05-08T22:15:18.011Z,3.74
2023-05-08T22:17:49.822Z,3.69
2023-05-08T22:20:16.720Z,3.65
2023-05-08T22:22:43.424Z,3.61
2023-05-08T22:25:10.102Z,3.56
2023-05-08T22:27:36.699Z,3.53
2023-05-08T22:30:03.545Z,3.51
2023-05-08T22:32:30.320Z,3.48
2023-05-08T22:34:56.975Z,3.46
2023-05-08T22:37:23.636Z,3.44
2023-05-08T22:39:50.303Z,3.43
2023-05-08T22:42:16.917Z,3.42
2023-05-08T22:44:44.032Z,3.39
2023-05-08T22:47:11.246Z,3.37
2023-05-08T22:49:41.459Z,3.34
2023-05-08T22:52:08.743Z,3.32
2023-05-08T22:54:35.433Z,3.30
2023-05-08T22:57:02.895Z,3.27
2023-05-08T22:59:29.671Z,3.26
2023-05-08T23:01:56.292Z,3.24
2023-05-08T23:04:23.102Z,3.23
2023-05-08T23:06:49.945Z,3.22
2023-05-08T23:09:16.532Z,3.21
2023-05-08T23:11:43.182Z,3.21
2023-05-08T23:14:09.852Z,3.20
2023-05-08T23:16:36.695Z,3.19
2023-05-08T23:19:04.603Z,3.19
2023-05-08T23:21:32.314Z,3.18
2023-05-08T23:23:59.405Z,3.17
2023-05-08T23:26:26.279Z,3.16
2023-05-08T23:28:52.997Z,3.16
2023-05-08T23:31:19.765Z,3.16
2023-05-08T23:33:46.442Z,3.15
2023-05-08T23:36:13.053Z,3.15
2023-05-08T23:38:39.701Z,3.14
2023-05-08T23:41:06.377Z,3.14
2023-05-08T23:43:33.188Z,3.14
2023-05-08T23:45:59.853Z,3.14
2023-05-08T23:48:26.797Z,3.15
2023-05-08T23:50:53.640Z,3.16
2023-05-08T23:53:20.782Z,3.15
2023-05-08T23:55:50.059Z,3.15
2023-05-08T23:58:18.394Z,3.15
